sensor_id;sensor_type;location;lat;lon;timestamp;temperature;humidity
9118;DHT22;4594;50.994;7.126;2022-09-09T00:00:48;19.20;56.90
9118;DHT22;4594;50.994;7.126;2022-09-09T00:03:24;19.30;57.20
9118;DHT22;4594;50.994;7.126;2022-09-09T00:09:02;19.30;57.30
9118;DHT22;4594;50.994;7.126;2022-09-09T00:11:51;19.30;56.30
9118;DHT22;4594;50.994;7.126;2022-09-09T00:14:45;19.30;57.10
9118;DHT22;4594;50.994;7.126;2022-09-09T00:17:32;19.30;56.40
9118;DHT22;4594;50.994;7.126;2022-09-09T00:23:33;19.30;57.60
9118;DHT22;4594;50.994;7.126;2022-09-09T00:29:26;19.20;56.10
9118;DHT22;4594;50.994;7.126;2022-09-09T00:32:09;19.20;57.50
9118;DHT22;4594;50.994;7.126;2022-09-09T00:34:52;19.20;57.00
9118;DHT22;4594;50.994;7.126;2022-09-09T00:37:23;19.20;56.90
9118;DHT22;4594;50.994;7.126;2022-09-09T00:39:54;19.10;57.00
9118;DHT22;4594;50.994;7.126;2022-09-09T00:42:30;19.10;57.10
9118;DHT22;4594;50.994;7.126;2022-09-09T00:45:36;19.00;56.80
9118;DHT22;4594;50.994;7.126;2022-09-09T00:48:17;19.00;55.80
9118;DHT22;4594;50.994;7.126;2022-09-09T00:50:59;19.00;57.10
9118;DHT22;4594;50.994;7.126;2022-09-09T00:56:50;18.90;57.70
9118;DHT22;4594;50.994;7.126;2022-09-09T00:59:58;19.00;57.10
9118;DHT22;4594;50.994;7.126;2022-09-09T01:11:26;19.00;56.60
9118;DHT22;4594;50.994;7.126;2022-09-09T01:16:29;19.00;57.60
9118;DHT22;4594;50.994;7.126;2022-09-09T01:18:57;19.00;57.90
9118;DHT22;4594;50.994;7.126;2022-09-09T01:21:47;19.00;57.90
9118;DHT22;4594;50.994;7.126;2022-09-09T01:24:53;19.10;56.60
9118;DHT22;4594;50.994;7.126;2022-09-09T01:27:33;19.00;56.60
9118;DHT22;4594;50.994;7.126;2022-09-09T01:30:04;19.00;57.80
9118;DHT22;4594;50.994;7.126;2022-09-09T01:32:51;19.00;57.90
9118;DHT22;4594;50.994;7.126;2022-09-09T01:35:41;19.00;56.70
9118;DHT22;4594;50.994;7.126;2022-09-09T01:38:08;19.00;56.30
9118;DHT22;4594;50.994;7.126;2022-09-09T01:40:34;19.10;57.80
9118;DHT22;4594;50.994;7.126;2022-09-09T01:43:01;19.00;57.70
9118;DHT22;4594;50.994;7.126;2022-09-09T01:45:28;19.00;57.80
9118;DHT22;4594;50.994;7.126;2022-09-09T01:47:55;19.00;57.90
9118;DHT22;4594;50.994;7.126;2022-09-09T01:50:22;19.00;57.80
9118;DHT22;4594;50.994;7.126;2022-09-09T01:52:56;19.00;57.70
9118;DHT22;4594;50.994;7.126;2022-09-09T01:55:40;19.00;56.90
9118;DHT22;4594;50.994;7.126;2022-09-09T02:03:32;19.00;57.10
9118;DHT22;4594;50.994;7.126;2022-09-09T02:08:55;19.10;57.50
9118;DHT22;4594;50.994;7.126;2022-09-09T02:11:25;19.10;57.60
9118;DHT22;4594;50.994;7.126;2022-09-09T02:14:06;19.10;57.90
9118;DHT22;4594;50.994;7.126;2022-09-09T02:16:56;19.10;56.80
9118;DHT22;4594;50.994;7.126;2022-09-09T02:19:32;19.10;57.00
9118;DHT22;4594;50.994;7.126;2022-09-09T02:22:02;19.10;57.70
9118;DHT22;4594;50.994;7.126;2022-09-09T02:24:34;19.10;58.10
9118;DHT22;4594;50.994;7.126;2022-09-09T02:27:06;19.10;57.30
9118;DHT22;4594;50.994;7.126;2022-09-09T02:29:41;19.10;57.60
9118;DHT22;4594;50.994;7.126;2022-09-09T02:32:13;19.10;57.80
9118;DHT22;4594;50.994;7.126;2022-09-09T02:34:50;19.10;57.80
9118;DHT22;4594;50.994;7.126;2022-09-09T02:37:24;19.20;57.40
9118;DHT22;4594;50.994;7.126;2022-09-09T02:39:57;19.10;57.40
9118;DHT22;4594;50.994;7.126;2022-09-09T02:42:23;19.10;57.80
9118;DHT22;4594;50.994;7.126;2022-09-09T02:44:49;19.10;57.80
9118;DHT22;4594;50.994;7.126;2022-09-09T02:47:50;19.10;57.70
9118;DHT22;4594;50.994;7.126;2022-09-09T02:50:34;19.10;56.60
9118;DHT22;4594;50.994;7.126;2022-09-09T02:53:20;19.10;57.10
9118;DHT22;4594;50.994;7.126;2022-09-09T02:56:05;19.10;56.60
9118;DHT22;4594;50.994;7.126;2022-09-09T02:58:39;19.10;57.10
9118;DHT22;4594;50.994;7.126;2022-09-09T03:01:05;19.10;58.00
9118;DHT22;4594;50.994;7.126;2022-09-09T03:03:31;19.10;58.00
9118;DHT22;4594;50.994;7.126;2022-09-09T03:05:58;19.10;58.00
9118;DHT22;4594;50.994;7.126;2022-09-09T03:08:24;19.10;58.00
9118;DHT22;4594;50.994;7.126;2022-09-09T03:10:50;19.10;58.00
9118;DHT22;4594;50.994;7.126;2022-09-09T03:13:15;19.10;58.10
9118;DHT22;4594;50.994;7.126;2022-09-09T03:15:42;19.10;58.10
9118;DHT22;4594;50.994;7.126;2022-09-09T03:18:07;19.10;58.10
9118;DHT22;4594;50.994;7.126;2022-09-09T03:20:33;19.10;58.10
9118;DHT22;4594;50.994;7.126;2022-09-09T03:23:00;19.10;58.10
9118;DHT22;4594;50.994;7.126;2022-09-09T03:25:26;19.10;58.40
9118;DHT22;4594;50.994;7.126;2022-09-09T03:27:53;19.20;58.20
9118;DHT22;4594;50.994;7.126;2022-09-09T03:30:25;19.10;58.00
9118;DHT22;4594;50.994;7.126;2022-09-09T03:32:52;19.10;57.40
9118;DHT22;4594;50.994;7.126;2022-09-09T03:35:18;19.20;58.10
9118;DHT22;4594;50.994;7.126;2022-09-09T03:37:44;19.20;58.10
9118;DHT22;4594;50.994;7.126;2022-09-09T03:40:11;19.20;58.20
9118;DHT22;4594;50.994;7.126;2022-09-09T03:42:38;19.20;57.90
9118;DHT22;4594;50.994;7.126;2022-09-09T03:45:06;19.10;57.80
9118;DHT22;4594;50.994;7.126;2022-09-09T03:47:34;19.20;57.70
9118;DHT22;4594;50.994;7.126;2022-09-09T03:50:00;19.10;57.80
9118;DHT22;4594;50.994;7.126;2022-09-09T03:52:26;19.20;57.90
9118;DHT22;4594;50.994;7.126;2022-09-09T03:54:53;19.20;57.90
9118;DHT22;4594;50.994;7.126;2022-09-09T03:57:20;19.20;57.90
9118;DHT22;4594;50.994;7.126;2022-09-09T03:59:45;19.20;57.80
9118;DHT22;4594;50.994;7.126;2022-09-09T04:02:11;19.20;57.80
9118;DHT22;4594;50.994;7.126;2022-09-09T04:04:37;19.20;57.80
9118;DHT22;4594;50.994;7.126;2022-09-09T04:07:03;19.20;57.70
9118;DHT22;4594;50.994;7.126;2022-09-09T04:09:31;19.20;57.70
9118;DHT22;4594;50.994;7.126;2022-09-09T04:11:57;19.20;57.70
9118;DHT22;4594;50.994;7.126;2022-09-09T04:14:22;19.10;57.70
9118;DHT22;4594;50.994;7.126;2022-09-09T04:16:48;19.20;57.70
9118;DHT22;4594;50.994;7.126;2022-09-09T04:19:14;19.20;57.70
9118;DHT22;4594;50.994;7.126;2022-09-09T04:21:43;19.10;57.60
9118;DHT22;4594;50.994;7.126;2022-09-09T04:24:08;19.10;57.10
9118;DHT22;4594;50.994;7.126;2022-09-09T04:26:36;19.20;57.80
9118;DHT22;4594;50.994;7.126;2022-09-09T04:29:04;19.20;57.60
9118;DHT22;4594;50.994;7.126;2022-09-09T04:31:30;19.10;57.60
9118;DHT22;4594;50.994;7.126;2022-09-09T04:33:56;19.20;57.80
9118;DHT22;4594;50.994;7.126;2022-09-09T04:36:22;19.20;57.80
9118;DHT22;4594;50.994;7.126;2022-09-09T04:38:48;19.20;57.80
9118;DHT22;4594;50.994;7.126;2022-09-09T04:41:15;19.20;57.80
9118;DHT22;4594;50.994;7.126;2022-09-09T04:43:42;19.20;57.80
9118;DHT22;4594;50.994;7.126;2022-09-09T04:46:08;19.20;57.80
9118;DHT22;4594;50.994;7.126;2022-09-09T04:48:34;19.20;57.80
9118;DHT22;4594;50.994;7.126;2022-09-09T04:51:08;19.20;57.90
9118;DHT22;4594;50.994;7.126;2022-09-09T04:53:36;19.20;57.00
9118;DHT22;4594;50.994;7.126;2022-09-09T04:56:08;19.20;57.90
9118;DHT22;4594;50.994;7.126;2022-09-09T04:58:39;19.30;57.40
9118;DHT22;4594;50.994;7.126;2022-09-09T05:01:09;19.30;58.20
9118;DHT22;4594;50.994;7.126;2022-09-09T05:03:37;19.30;57.90
9118;DHT22;4594;50.994;7.126;2022-09-09T05:06:14;19.30;58.00
9118;DHT22;4594;50.994;7.126;2022-09-09T05:08:44;19.30;56.90
9118;DHT22;4594;50.994;7.126;2022-09-09T05:11:34;19.30;58.10
9118;DHT22;4594;50.994;7.126;2022-09-09T05:14:02;19.30;56.80
9118;DHT22;4594;50.994;7.126;2022-09-09T05:16:28;19.30;58.00
9118;DHT22;4594;50.994;7.126;2022-09-09T05:18:55;19.30;58.10
9118;DHT22;4594;50.994;7.126;2022-09-09T05:21:23;19.40;58.10
9118;DHT22;4594;50.994;7.126;2022-09-09T05:23:51;19.30;57.80
9118;DHT22;4594;50.994;7.126;2022-09-09T05:26:19;19.40;58.10
9118;DHT22;4594;50.994;7.126;2022-09-09T05:28:47;19.40;58.00
9118;DHT22;4594;50.994;7.126;2022-09-09T05:31:15;19.40;58.00
9118;DHT22;4594;50.994;7.126;2022-09-09T05:33:43;19.30;57.60
9118;DHT22;4594;50.994;7.126;2022-09-09T05:36:13;19.30;57.70
9118;DHT22;4594;50.994;7.126;2022-09-09T05:38:40;19.20;57.80
9118;DHT22;4594;50.994;7.126;2022-09-09T05:41:07;19.10;58.10
9118;DHT22;4594;50.994;7.126;2022-09-09T05:43:34;19.00;58.10
9118;DHT22;4594;50.994;7.126;2022-09-09T05:46:12;18.90;58.50
9118;DHT22;4594;50.994;7.126;2022-09-09T05:48:43;18.90;58.70
9118;DHT22;4594;50.994;7.126;2022-09-09T05:51:13;18.70;59.00
9118;DHT22;4594;50.994;7.126;2022-09-09T05:53:44;18.70;59.40
9118;DHT22;4594;50.994;7.126;2022-09-09T05:56:15;18.60;59.80
9118;DHT22;4594;50.994;7.126;2022-09-09T05:58:43;18.50;60.30
9118;DHT22;4594;50.994;7.126;2022-09-09T06:01:15;18.40;60.90
9118;DHT22;4594;50.994;7.126;2022-09-09T06:03:43;18.30;61.10
9118;DHT22;4594;50.994;7.126;2022-09-09T06:06:12;18.30;61.80
9118;DHT22;4594;50.994;7.126;2022-09-09T06:08:46;18.20;62.00
9118;DHT22;4594;50.994;7.126;2022-09-09T06:11:18;18.20;62.30
9118;DHT22;4594;50.994;7.126;2022-09-09T06:13:48;18.10;62.30
9118;DHT22;4594;50.994;7.126;2022-09-09T06:16:18;18.10;63.20
9118;DHT22;4594;50.994;7.126;2022-09-09T06:18:45;18.10;63.60
9118;DHT22;4594;50.994;7.126;2022-09-09T06:21:19;18.10;64.10
9118;DHT22;4594;50.994;7.126;2022-09-09T06:23:49;18.10;63.60
9118;DHT22;4594;50.994;7.126;2022-09-09T06:28:49;18.00;63.70
9118;DHT22;4594;50.994;7.126;2022-09-09T06:31:17;18.00;64.40
9118;DHT22;4594;50.994;7.126;2022-09-09T06:33:47;18.00;64.70
9118;DHT22;4594;50.994;7.126;2022-09-09T06:36:23;18.00;65.00
9118;DHT22;4594;50.994;7.126;2022-09-09T06:38:56;18.00;65.00
9118;DHT22;4594;50.994;7.126;2022-09-09T06:41:24;18.00;66.00
9118;DHT22;4594;50.994;7.126;2022-09-09T06:43:52;18.10;66.30
9118;DHT22;4594;50.994;7.126;2022-09-09T06:46:20;18.10;67.00
9118;DHT22;4594;50.994;7.126;2022-09-09T06:48:47;18.10;67.90
9118;DHT22;4594;50.994;7.126;2022-09-09T06:51:19;18.20;70.30
9118;DHT22;4594;50.994;7.126;2022-09-09T06:53:54;18.40;71.60
9118;DHT22;4594;50.994;7.126;2022-09-09T06:56:31;18.60;72.50
9118;DHT22;4594;50.994;7.126;2022-09-09T06:59:00;18.90;74.10
9118;DHT22;4594;50.994;7.126;2022-09-09T07:01:31;19.10;76.30
9118;DHT22;4594;50.994;7.126;2022-09-09T07:03:59;19.30;75.10
9118;DHT22;4594;50.994;7.126;2022-09-09T07:06:31;19.60;75.80
9118;DHT22;4594;50.994;7.126;2022-09-09T07:09:02;19.90;73.20
9118;DHT22;4594;50.994;7.126;2022-09-09T07:11:41;20.00;72.10
9118;DHT22;4594;50.994;7.126;2022-09-09T07:14:14;20.20;71.40
9118;DHT22;4594;50.994;7.126;2022-09-09T07:16:41;20.50;77.60
9118;DHT22;4594;50.994;7.126;2022-09-09T07:19:08;20.80;79.50
9118;DHT22;4594;50.994;7.126;2022-09-09T07:21:36;21.20;80.50
9118;DHT22;4594;50.994;7.126;2022-09-09T07:24:02;21.70;80.70
9118;DHT22;4594;50.994;7.126;2022-09-09T07:26:32;22.10;78.10
9118;DHT22;4594;50.994;7.126;2022-09-09T07:28:59;22.40;73.80
9118;DHT22;4594;50.994;7.126;2022-09-09T07:31:34;22.60;70.90
9118;DHT22;4594;50.994;7.126;2022-09-09T07:34:02;22.80;66.40
9118;DHT22;4594;50.994;7.126;2022-09-09T07:36:32;22.90;66.20
9118;DHT22;4594;50.994;7.126;2022-09-09T07:39:05;22.80;63.80
9118;DHT22;4594;50.994;7.126;2022-09-09T07:41:38;22.80;62.50
9118;DHT22;4594;50.994;7.126;2022-09-09T07:44:18;22.80;62.60
9118;DHT22;4594;50.994;7.126;2022-09-09T07:46:46;22.80;61.00
9118;DHT22;4594;50.994;7.126;2022-09-09T07:49:13;22.80;61.60
9118;DHT22;4594;50.994;7.126;2022-09-09T07:51:42;22.70;61.20
9118;DHT22;4594;50.994;7.126;2022-09-09T07:54:12;22.70;60.40
9118;DHT22;4594;50.994;7.126;2022-09-09T07:56:40;22.80;63.10
9118;DHT22;4594;50.994;7.126;2022-09-09T07:59:08;22.90;65.00
9118;DHT22;4594;50.994;7.126;2022-09-09T08:01:37;23.00;65.40
9118;DHT22;4594;50.994;7.126;2022-09-09T08:04:15;23.20;65.30
9118;DHT22;4594;50.994;7.126;2022-09-09T08:06:55;23.40;60.10
9118;DHT22;4594;50.994;7.126;2022-09-09T08:09:23;23.40;59.90
9118;DHT22;4594;50.994;7.126;2022-09-09T08:11:52;23.40;59.00
9118;DHT22;4594;50.994;7.126;2022-09-09T08:14:18;23.40;58.30
9118;DHT22;4594;50.994;7.126;2022-09-09T08:16:47;23.30;56.60
9118;DHT22;4594;50.994;7.126;2022-09-09T08:19:13;23.20;56.30
9118;DHT22;4594;50.994;7.126;2022-09-09T08:21:43;23.00;57.10
9118;DHT22;4594;50.994;7.126;2022-09-09T08:24:10;22.90;57.20
9118;DHT22;4594;50.994;7.126;2022-09-09T08:26:40;22.80;56.20
9118;DHT22;4594;50.994;7.126;2022-09-09T08:29:09;22.80;55.70
9118;DHT22;4594;50.994;7.126;2022-09-09T08:31:41;22.70;56.30
9118;DHT22;4594;50.994;7.126;2022-09-09T08:34:18;22.60;55.50
9118;DHT22;4594;50.994;7.126;2022-09-09T08:36:46;22.60;56.70
9118;DHT22;4594;50.994;7.126;2022-09-09T08:39:16;22.50;56.30
9118;DHT22;4594;50.994;7.126;2022-09-09T08:53:02;22.30;54.30
9118;DHT22;4594;50.994;7.126;2022-09-09T08:55:51;22.30;55.40
9118;DHT22;4594;50.994;7.126;2022-09-09T08:58:33;22.30;51.20
9118;DHT22;4594;50.994;7.126;2022-09-09T09:07:13;22.40;53.00
9118;DHT22;4594;50.994;7.126;2022-09-09T09:16:25;22.40;54.80
9118;DHT22;4594;50.994;7.126;2022-09-09T09:18:58;22.40;55.40
9118;DHT22;4594;50.994;7.126;2022-09-09T09:21:36;22.50;56.50
9118;DHT22;4594;50.994;7.126;2022-09-09T09:24:20;22.50;55.20
9118;DHT22;4594;50.994;7.126;2022-09-09T09:26:51;22.60;57.10
9118;DHT22;4594;50.994;7.126;2022-09-09T09:29:19;22.80;61.10
9118;DHT22;4594;50.994;7.126;2022-09-09T09:31:55;23.00;61.90
9118;DHT22;4594;50.994;7.126;2022-09-09T09:34:24;23.30;59.00
9118;DHT22;4594;50.994;7.126;2022-09-09T09:36:56;23.60;62.90
9118;DHT22;4594;50.994;7.126;2022-09-09T09:39:25;23.80;58.60
9118;DHT22;4594;50.994;7.126;2022-09-09T09:41:53;24.00;58.40
9118;DHT22;4594;50.994;7.126;2022-09-09T09:44:30;24.10;57.60
9118;DHT22;4594;50.994;7.126;2022-09-09T09:47:19;24.20;53.90
9118;DHT22;4594;50.994;7.126;2022-09-09T09:49:57;24.20;53.40
9118;DHT22;4594;50.994;7.126;2022-09-09T09:52:29;24.20;53.20
9118;DHT22;4594;50.994;7.126;2022-09-09T09:54:58;24.10;54.10
9118;DHT22;4594;50.994;7.126;2022-09-09T09:57:30;24.00;53.00
9118;DHT22;4594;50.994;7.126;2022-09-09T10:00:20;23.90;52.30
9118;DHT22;4594;50.994;7.126;2022-09-09T10:02:49;23.70;51.60
9118;DHT22;4594;50.994;7.126;2022-09-09T10:08:13;23.40;50.80
9118;DHT22;4594;50.994;7.126;2022-09-09T10:10:56;23.30;52.40
9118;DHT22;4594;50.994;7.126;2022-09-09T10:19:35;23.00;51.30
9118;DHT22;4594;50.994;7.126;2022-09-09T10:22:12;23.00;54.70
9118;DHT22;4594;50.994;7.126;2022-09-09T10:33:50;23.10;52.80
9118;DHT22;4594;50.994;7.126;2022-09-09T10:36:26;23.10;53.30
9118;DHT22;4594;50.994;7.126;2022-09-09T10:42:13;23.10;52.80
9118;DHT22;4594;50.994;7.126;2022-09-09T10:51:02;23.00;52.50
9118;DHT22;4594;50.994;7.126;2022-09-09T10:54:24;23.00;53.60
9118;DHT22;4594;50.994;7.126;2022-09-09T10:57:08;23.00;52.70
9118;DHT22;4594;50.994;7.126;2022-09-09T10:59:45;23.00;54.30
9118;DHT22;4594;50.994;7.126;2022-09-09T11:02:29;23.00;54.50
9118;DHT22;4594;50.994;7.126;2022-09-09T11:05:03;23.00;52.30
9118;DHT22;4594;50.994;7.126;2022-09-09T11:07:42;23.00;53.10
9118;DHT22;4594;50.994;7.126;2022-09-09T11:12:53;23.10;52.20
9118;DHT22;4594;50.994;7.126;2022-09-09T11:15:44;23.10;54.70
9118;DHT22;4594;50.994;7.126;2022-09-09T11:18:19;23.10;53.50
9118;DHT22;4594;50.994;7.126;2022-09-09T11:20:51;23.20;55.40
9118;DHT22;4594;50.994;7.126;2022-09-09T11:23:39;23.20;54.50
9118;DHT22;4594;50.994;7.126;2022-09-09T11:26:14;23.30;53.90
9118;DHT22;4594;50.994;7.126;2022-09-09T11:29:22;23.40;54.30
9118;DHT22;4594;50.994;7.126;2022-09-09T11:40:30;23.70;52.30
9118;DHT22;4594;50.994;7.126;2022-09-09T11:43:25;23.80;52.70
9118;DHT22;4594;50.994;7.126;2022-09-09T11:45:56;23.80;52.20
9118;DHT22;4594;50.994;7.126;2022-09-09T11:48:41;23.90;54.90
9118;DHT22;4594;50.994;7.126;2022-09-09T11:53:52;23.90;54.10
9118;DHT22;4594;50.994;7.126;2022-09-09T11:56:48;23.90;54.50
9118;DHT22;4594;50.994;7.126;2022-09-09T12:05:02;24.00;54.50
9118;DHT22;4594;50.994;7.126;2022-09-09T12:07:59;24.00;51.30
9118;DHT22;4594;50.994;7.126;2022-09-09T12:10:30;24.10;51.40
9118;DHT22;4594;50.994;7.126;2022-09-09T12:13:27;24.10;52.80
9118;DHT22;4594;50.994;7.126;2022-09-09T12:15:58;24.10;50.40
9118;DHT22;4594;50.994;7.126;2022-09-09T12:18:38;24.10;53.00
9118;DHT22;4594;50.994;7.126;2022-09-09T12:24:22;24.10;50.70
9118;DHT22;4594;50.994;7.126;2022-09-09T12:27:24;24.10;50.90
9118;DHT22;4594;50.994;7.126;2022-09-09T12:32:35;24.00;50.40
9118;DHT22;4594;50.994;7.126;2022-09-09T12:35:09;24.00;52.70
9118;DHT22;4594;50.994;7.126;2022-09-09T12:40:20;23.90;51.60
9118;DHT22;4594;50.994;7.126;2022-09-09T12:42:48;23.90;51.20
9118;DHT22;4594;50.994;7.126;2022-09-09T12:45:18;23.90;52.20
9118;DHT22;4594;50.994;7.126;2022-09-09T12:47:55;23.90;52.20
9118;DHT22;4594;50.994;7.126;2022-09-09T12:50:30;23.90;50.50
9118;DHT22;4594;50.994;7.126;2022-09-09T12:53:16;23.90;51.70
9118;DHT22;4594;50.994;7.126;2022-09-09T12:55:59;23.90;49.50
9118;DHT22;4594;50.994;7.126;2022-09-09T12:58:30;23.90;51.20
9118;DHT22;4594;50.994;7.126;2022-09-09T13:01:00;23.80;50.90
9118;DHT22;4594;50.994;7.126;2022-09-09T13:03:30;23.70;51.30
9118;DHT22;4594;50.994;7.126;2022-09-09T13:06:10;23.60;50.90
9118;DHT22;4594;50.994;7.126;2022-09-09T13:08:37;23.60;50.20
9118;DHT22;4594;50.994;7.126;2022-09-09T13:11:08;23.50;50.90
9118;DHT22;4594;50.994;7.126;2022-09-09T13:13:40;23.50;50.00
9118;DHT22;4594;50.994;7.126;2022-09-09T13:16:23;23.40;51.00
9118;DHT22;4594;50.994;7.126;2022-09-09T13:19:00;23.50;49.00
9118;DHT22;4594;50.994;7.126;2022-09-09T13:21:35;23.60;51.60
9118;DHT22;4594;50.994;7.126;2022-09-09T13:24:07;23.60;50.80
9118;DHT22;4594;50.994;7.126;2022-09-09T13:30:00;23.80;49.80
9118;DHT22;4594;50.994;7.126;2022-09-09T13:32:28;23.80;52.10
9118;DHT22;4594;50.994;7.126;2022-09-09T13:34:59;23.90;51.00
9118;DHT22;4594;50.994;7.126;2022-09-09T13:37:37;23.90;50.90
9118;DHT22;4594;50.994;7.126;2022-09-09T13:40:14;24.00;49.70
9118;DHT22;4594;50.994;7.126;2022-09-09T13:42:44;23.90;51.50
9118;DHT22;4594;50.994;7.126;2022-09-09T13:45:21;24.00;51.60
9118;DHT22;4594;50.994;7.126;2022-09-09T13:47:53;24.00;48.90
9118;DHT22;4594;50.994;7.126;2022-09-09T13:50:28;24.00;51.10
9118;DHT22;4594;50.994;7.126;2022-09-09T13:52:56;24.00;49.40
9118;DHT22;4594;50.994;7.126;2022-09-09T13:55:28;24.00;50.90
9118;DHT22;4594;50.994;7.126;2022-09-09T13:57:59;24.10;50.80
9118;DHT22;4594;50.994;7.126;2022-09-09T14:00:29;24.00;49.60
9118;DHT22;4594;50.994;7.126;2022-09-09T14:02:56;24.00;50.60
9118;DHT22;4594;50.994;7.126;2022-09-09T14:05:22;24.10;51.20
9118;DHT22;4594;50.994;7.126;2022-09-09T14:07:49;24.10;51.20
9118;DHT22;4594;50.994;7.126;2022-09-09T14:10:15;24.20;51.40
9118;DHT22;4594;50.994;7.126;2022-09-09T14:12:41;24.20;51.10
9118;DHT22;4594;50.994;7.126;2022-09-09T14:15:10;24.30;51.20
9118;DHT22;4594;50.994;7.126;2022-09-09T14:17:36;24.40;50.40
9118;DHT22;4594;50.994;7.126;2022-09-09T14:20:05;24.40;50.70
9118;DHT22;4594;50.994;7.126;2022-09-09T14:22:36;24.40;49.50
9118;DHT22;4594;50.994;7.126;2022-09-09T14:25:03;24.50;50.30
9118;DHT22;4594;50.994;7.126;2022-09-09T14:27:29;24.50;49.90
9118;DHT22;4594;50.994;7.126;2022-09-09T14:29:55;24.40;49.80
9118;DHT22;4594;50.994;7.126;2022-09-09T14:32:21;24.40;49.60
9118;DHT22;4594;50.994;7.126;2022-09-09T14:34:47;24.40;50.00
9118;DHT22;4594;50.994;7.126;2022-09-09T14:37:16;24.40;49.80
9118;DHT22;4594;50.994;7.126;2022-09-09T14:39:42;24.40;49.50
9118;DHT22;4594;50.994;7.126;2022-09-09T14:42:12;24.40;49.60
9118;DHT22;4594;50.994;7.126;2022-09-09T14:44:38;24.40;49.80
9118;DHT22;4594;50.994;7.126;2022-09-09T14:47:05;24.20;49.60
9118;DHT22;4594;50.994;7.126;2022-09-09T14:49:36;24.30;49.60
9118;DHT22;4594;50.994;7.126;2022-09-09T14:52:03;24.20;49.40
9118;DHT22;4594;50.994;7.126;2022-09-09T14:54:30;24.20;49.50
9118;DHT22;4594;50.994;7.126;2022-09-09T14:56:58;24.10;49.20
9118;DHT22;4594;50.994;7.126;2022-09-09T14:59:24;24.10;49.50
9118;DHT22;4594;50.994;7.126;2022-09-09T15:01:50;24.10;49.40
9118;DHT22;4594;50.994;7.126;2022-09-09T15:04:16;24.00;50.10
9118;DHT22;4594;50.994;7.126;2022-09-09T15:06:45;23.90;50.20
9118;DHT22;4594;50.994;7.126;2022-09-09T15:09:14;23.80;50.20
9118;DHT22;4594;50.994;7.126;2022-09-09T15:11:40;23.70;50.30
9118;DHT22;4594;50.994;7.126;2022-09-09T15:14:07;23.50;50.50
9118;DHT22;4594;50.994;7.126;2022-09-09T15:16:34;23.40;50.60
9118;DHT22;4594;50.994;7.126;2022-09-09T15:19:01;23.20;51.00
9118;DHT22;4594;50.994;7.126;2022-09-09T15:21:33;23.10;51.10
9118;DHT22;4594;50.994;7.126;2022-09-09T15:24:01;23.00;51.60
9118;DHT22;4594;50.994;7.126;2022-09-09T15:26:27;22.90;52.10
9118;DHT22;4594;50.994;7.126;2022-09-09T15:28:53;22.80;52.50
9118;DHT22;4594;50.994;7.126;2022-09-09T15:31:22;22.70;53.00
9118;DHT22;4594;50.994;7.126;2022-09-09T15:33:51;22.70;53.20
9118;DHT22;4594;50.994;7.126;2022-09-09T15:36:23;22.60;53.50
9118;DHT22;4594;50.994;7.126;2022-09-09T15:38:52;22.60;53.30
9118;DHT22;4594;50.994;7.126;2022-09-09T15:41:19;22.60;54.20
9118;DHT22;4594;50.994;7.126;2022-09-09T15:43:56;22.60;54.20
9118;DHT22;4594;50.994;7.126;2022-09-09T15:48:53;22.60;54.20
9118;DHT22;4594;50.994;7.126;2022-09-09T15:51:28;22.60;54.10
9118;DHT22;4594;50.994;7.126;2022-09-09T15:53:55;22.50;54.00
9118;DHT22;4594;50.994;7.126;2022-09-09T15:56:25;22.50;54.40
9118;DHT22;4594;50.994;7.126;2022-09-09T15:58:54;22.50;54.60
9118;DHT22;4594;50.994;7.126;2022-09-09T16:01:21;22.50;55.00
9118;DHT22;4594;50.994;7.126;2022-09-09T16:03:46;22.50;55.30
9118;DHT22;4594;50.994;7.126;2022-09-09T16:06:13;22.50;55.20
9118;DHT22;4594;50.994;7.126;2022-09-09T16:08:42;22.40;54.90
9118;DHT22;4594;50.994;7.126;2022-09-09T16:11:14;22.40;54.60
9118;DHT22;4594;50.994;7.126;2022-09-09T16:13:43;22.30;53.40
9118;DHT22;4594;50.994;7.126;2022-09-09T16:16:12;22.20;53.50
9118;DHT22;4594;50.994;7.126;2022-09-09T16:18:42;22.10;53.20
9118;DHT22;4594;50.994;7.126;2022-09-09T16:21:16;22.00;53.30
9118;DHT22;4594;50.994;7.126;2022-09-09T16:23:47;21.90;52.70
9118;DHT22;4594;50.994;7.126;2022-09-09T16:26:15;21.80;53.70
9118;DHT22;4594;50.994;7.126;2022-09-09T16:28:42;21.70;53.50
9118;DHT22;4594;50.994;7.126;2022-09-09T16:31:11;21.60;53.50
9118;DHT22;4594;50.994;7.126;2022-09-09T16:33:40;21.50;53.00
9118;DHT22;4594;50.994;7.126;2022-09-09T16:36:08;21.40;53.20
9118;DHT22;4594;50.994;7.126;2022-09-09T16:38:36;21.30;52.80
9118;DHT22;4594;50.994;7.126;2022-09-09T16:41:06;21.20;53.10
9118;DHT22;4594;50.994;7.126;2022-09-09T16:43:34;21.00;52.50
9118;DHT22;4594;50.994;7.126;2022-09-09T16:46:02;21.00;53.20
9118;DHT22;4594;50.994;7.126;2022-09-09T16:48:34;20.90;53.50
9118;DHT22;4594;50.994;7.126;2022-09-09T16:51:08;20.80;53.00
9118;DHT22;4594;50.994;7.126;2022-09-09T16:53:37;20.70;53.30
9118;DHT22;4594;50.994;7.126;2022-09-09T16:56:07;20.70;54.20
9118;DHT22;4594;50.994;7.126;2022-09-09T16:58:34;20.60;54.00
9118;DHT22;4594;50.994;7.126;2022-09-09T17:01:01;20.60;54.60
9118;DHT22;4594;50.994;7.126;2022-09-09T17:03:30;20.50;54.70
9118;DHT22;4594;50.994;7.126;2022-09-09T17:05:57;20.50;55.10
9118;DHT22;4594;50.994;7.126;2022-09-09T17:08:30;20.50;55.40
9118;DHT22;4594;50.994;7.126;2022-09-09T17:10:56;20.40;55.50
9118;DHT22;4594;50.994;7.126;2022-09-09T17:13:23;20.40;55.50
9118;DHT22;4594;50.994;7.126;2022-09-09T17:15:49;20.40;55.80
9118;DHT22;4594;50.994;7.126;2022-09-09T17:18:14;20.40;55.90
9118;DHT22;4594;50.994;7.126;2022-09-09T17:20:41;20.40;56.20
9118;DHT22;4594;50.994;7.126;2022-09-09T17:23:08;20.40;56.30
9118;DHT22;4594;50.994;7.126;2022-09-09T17:25:36;20.40;56.40
9118;DHT22;4594;50.994;7.126;2022-09-09T17:28:02;20.30;56.20
9118;DHT22;4594;50.994;7.126;2022-09-09T17:30:34;20.30;56.30
9118;DHT22;4594;50.994;7.126;2022-09-09T17:33:05;20.30;55.70
9118;DHT22;4594;50.994;7.126;2022-09-09T17:35:32;20.30;56.00
9118;DHT22;4594;50.994;7.126;2022-09-09T17:37:58;20.20;55.90
9118;DHT22;4594;50.994;7.126;2022-09-09T17:40:24;20.20;56.00
9118;DHT22;4594;50.994;7.126;2022-09-09T17:42:50;20.10;56.20
9118;DHT22;4594;50.994;7.126;2022-09-09T17:45:15;20.10;56.30
9118;DHT22;4594;50.994;7.126;2022-09-09T17:47:41;20.10;56.20
9118;DHT22;4594;50.994;7.126;2022-09-09T17:50:09;20.00;56.20
9118;DHT22;4594;50.994;7.126;2022-09-09T17:52:38;20.00;56.40
9118;DHT22;4594;50.994;7.126;2022-09-09T17:55:06;19.90;56.50
9118;DHT22;4594;50.994;7.126;2022-09-09T17:57:34;19.90;56.50
9118;DHT22;4594;50.994;7.126;2022-09-09T18:00:00;19.80;56.70
9118;DHT22;4594;50.994;7.126;2022-09-09T18:02:26;19.80;56.80
9118;DHT22;4594;50.994;7.126;2022-09-09T18:04:52;19.70;56.90
9118;DHT22;4594;50.994;7.126;2022-09-09T18:07:17;19.70;57.00
9118;DHT22;4594;50.994;7.126;2022-09-09T18:09:43;19.70;57.20
9118;DHT22;4594;50.994;7.126;2022-09-09T18:12:09;19.70;57.30
9118;DHT22;4594;50.994;7.126;2022-09-09T18:14:35;19.60;57.30
9118;DHT22;4594;50.994;7.126;2022-09-09T18:17:02;19.60;57.40
9118;DHT22;4594;50.994;7.126;2022-09-09T18:19:29;19.60;57.60
9118;DHT22;4594;50.994;7.126;2022-09-09T18:21:57;19.60;57.70
9118;DHT22;4594;50.994;7.126;2022-09-09T18:24:23;19.60;57.70
9118;DHT22;4594;50.994;7.126;2022-09-09T18:26:50;19.60;57.80
9118;DHT22;4594;50.994;7.126;2022-09-09T18:29:19;19.60;57.90
9118;DHT22;4594;50.994;7.126;2022-09-09T18:31:49;19.60;57.80